sensor_id;sensor_type;location;lat;lon;timestamp;pressure;altitude;pressure_sealevel;temperature;humidity
9059;BME280;4564;42.034;25.834;2024-02-23T00:00:01;100193.63;;;7.26;100.00
9059;BME280;4564;42.034;25.834;2024-02-23T00:02:30;100194.81;;;7.31;100.00
9059;BME280;4564;42.034;25.834;2024-02-23T00:04:57;100189.25;;;7.25;100.00
9059;BME280;4564;42.034;25.834;2024-02-23T00:07:25;100189.25;;;7.25;100.00
9059;BME280;4564;42.034;25.834;2024-02-23T00:09:52;100190.63;;;7.29;100.00
9059;BME280;4564;42.034;25.834;2024-02-23T00:12:18;100188.91;;;7.20;100.00
9059;BME280;4564;42.034;25.834;2024-02-23T00:14:45;100186.88;;;7.13;100.00
9059;BME280;4564;42.034;25.834;2024-02-23T00:17:12;100193.28;;;7.21;100.00
9059;BME280;4564;42.034;25.834;2024-02-23T00:19:38;100185.56;;;7.18;100.00
9059;BME280;4564;42.034;25.834;2024-02-23T00:22:05;100184.16;;;7.13;100.00
9059;BME280;4564;42.034;25.834;2024-02-23T00:24:33;100181.81;;;7.10;100.00
9059;BME280;4564;42.034;25.834;2024-02-23T00:27:01;100181.66;;;7.04;100.00
9059;BME280;4564;42.034;25.834;2024-02-23T00:29:28;100179.09;;;7.02;100.00
9059;BME280;4564;42.034;25.834;2024-02-23T00:31:54;100186.50;;;6.92;100.00
9059;BME280;4564;42.034;25.834;2024-02-23T00:34:21;100182.81;;;6.93;100.00
9059;BME280;4564;42.034;25.834;2024-02-23T00:36:48;100177.44;;;6.85;100.00
9059;BME280;4564;42.034;25.834;2024-02-23T00:39:14;100179.78;;;6.80;100.00
9059;BME280;4564;42.034;25.834;2024-02-23T00:41:42;100185.31;;;6.79;100.00
9059;BME280;4564;42.034;25.834;2024-02-23T00:44:09;100178.75;;;6.73;100.00
9059;BME280;4564;42.034;25.834;2024-02-23T00:46:36;100179.25;;;6.77;100.00
9059;BME280;4564;42.034;25.834;2024-02-23T00:49:02;100179.25;;;6.77;100.00
9059;BME280;4564;42.034;25.834;2024-02-23T00:51:29;100186.00;;;6.81;100.00
9059;BME280;4564;42.034;25.834;2024-02-23T00:53:55;100183.13;;;6.82;100.00
9059;BME280;4564;42.034;25.834;2024-02-23T00:56:22;100174.38;;;6.80;100.00
9059;BME280;4564;42.034;25.834;2024-02-23T00:58:50;100170.66;;;6.81;100.00
9059;BME280;4564;42.034;25.834;2024-02-23T01:01:17;100168.66;;;6.83;100.00
9059;BME280;4564;42.034;25.834;2024-02-23T01:03:44;100159.56;;;6.84;100.00
9059;BME280;4564;42.034;25.834;2024-02-23T01:06:10;100159.38;;;6.86;100.00
9059;BME280;4564;42.034;25.834;2024-02-23T01:08:37;100159.88;;;6.81;100.00
9059;BME280;4564;42.034;25.834;2024-02-23T01:11:05;100157.34;;;6.80;100.00
9059;BME280;4564;42.034;25.834;2024-02-23T01:13:32;100162.22;;;6.76;100.00
9059;BME280;4564;42.034;25.834;2024-02-23T01:16:00;100151.78;;;6.73;100.00
9059;BME280;4564;42.034;25.834;2024-02-23T01:18:26;100156.31;;;6.72;100.00
9059;BME280;4564;42.034;25.834;2024-02-23T01:20:53;100144.03;;;6.78;100.00
9059;BME280;4564;42.034;25.834;2024-02-23T01:23:18;100143.34;;;6.76;100.00
9059;BME280;4564;42.034;25.834;2024-02-23T01:25:45;100143.69;;;6.81;100.00
9059;BME280;4564;42.034;25.834;2024-02-23T01:28:11;100138.47;;;6.80;100.00
9059;BME280;4564;42.034;25.834;2024-02-23T01:30:38;100139.50;;;6.79;100.00
9059;BME280;4564;42.034;25.834;2024-02-23T01:33:06;100134.25;;;6.77;100.00
9059;BME280;4564;42.034;25.834;2024-02-23T01:35:33;100137.94;;;6.76;100.00
9059;BME280;4564;42.034;25.834;2024-02-23T01:38:01;100131.25;;;6.80;100.00
9059;BME280;4564;42.034;25.834;2024-02-23T01:40:28;100124.97;;;6.88;100.00
9059;BME280;4564;42.034;25.834;2024-02-23T01:43:01;100127.19;;;7.00;100.00
9059;BME280;4564;42.034;25.834;2024-02-23T01:45:28;100116.56;;;6.91;100.00
9059;BME280;4564;42.034;25.834;2024-02-23T01:47:55;100119.25;;;6.83;100.00
9059;BME280;4564;42.034;25.834;2024-02-23T01:50:23;100107.44;;;6.75;100.00
9059;BME280;4564;42.034;25.834;2024-02-23T01:52:50;100107.78;;;6.72;100.00
9059;BME280;4564;42.034;25.834;2024-02-23T01:55:17;100104.94;;;6.82;100.00
9059;BME280;4564;42.034;25.834;2024-02-23T01:57:44;100113.88;;;6.99;100.00
9059;BME280;4564;42.034;25.834;2024-02-23T02:00:12;100111.69;;;6.94;100.00
9059;BME280;4564;42.034;25.834;2024-02-23T02:02:41;100108.47;;;6.83;100.00
9059;BME280;4564;42.034;25.834;2024-02-23T02:05:09;100113.69;;;6.84;100.00
9059;BME280;4564;42.034;25.834;2024-02-23T02:07:37;100105.78;;;6.74;100.00
9059;BME280;4564;42.034;25.834;2024-02-23T02:10:04;100108.81;;;6.63;100.00
9059;BME280;4564;42.034;25.834;2024-02-23T02:12:31;100104.56;;;6.61;100.00
9059;BME280;4564;42.034;25.834;2024-02-23T02:14:58;100106.94;;;6.56;100.00
9059;BME280;4564;42.034;25.834;2024-02-23T02:17:26;100107.28;;;6.53;100.00
9059;BME280;4564;42.034;25.834;2024-02-23T02:19:53;100110.97;;;6.52;100.00
9059;BME280;4564;42.034;25.834;2024-02-23T02:22:20;100105.22;;;6.55;100.00
9059;BME280;4564;42.034;25.834;2024-02-23T02:24:48;100105.38;;;6.53;100.00
9059;BME280;4564;42.034;25.834;2024-02-23T02:27:17;100109.28;;;6.51;100.00
9059;BME280;4564;42.034;25.834;2024-02-23T02:29:43;100112.97;;;6.50;100.00
9059;BME280;4564;42.034;25.834;2024-02-23T02:32:10;100110.97;;;6.52;100.00
9059;BME280;4564;42.034;25.834;2024-02-23T02:34:37;100105.56;;;6.60;100.00
9059;BME280;4564;42.034;25.834;2024-02-23T02:37:03;100114.31;;;6.54;100.00
9059;BME280;4564;42.034;25.834;2024-02-23T02:39:30;100106.44;;;6.52;100.00
9059;BME280;4564;42.034;25.834;2024-02-23T02:41:58;100097.84;;;6.57;100.00
9059;BME280;4564;42.034;25.834;2024-02-23T02:44:25;100104.25;;;6.64;100.00
9059;BME280;4564;42.034;25.834;2024-02-23T02:46:55;100105.41;;;6.69;100.00
9059;BME280;4564;42.034;25.834;2024-02-23T02:49:22;100105.91;;;6.65;100.00
9059;BME280;4564;42.034;25.834;2024-02-23T02:51:49;100105.25;;;6.63;100.00
9059;BME280;4564;42.034;25.834;2024-02-23T02:54:15;100103.41;;;6.63;100.00
9059;BME280;4564;42.034;25.834;2024-02-23T02:56:43;100108.97;;;6.62;100.00
9059;BME280;4564;42.034;25.834;2024-02-23T02:59:12;100114.19;;;6.63;100.00
9059;BME280;4564;42.034;25.834;2024-02-23T03:01:39;100116.69;;;6.65;100.00
9059;BME280;4564;42.034;25.834;2024-02-23T03:04:06;100128.00;;;6.60;100.00
9059;BME280;4564;42.034;25.834;2024-02-23T03:06:32;100122.75;;;6.59;100.00
9059;BME280;4564;42.034;25.834;2024-02-23T03:08:59;100118.91;;;6.61;100.00
9059;BME280;4564;42.034;25.834;2024-02-23T03:11:26;100118.88;;;6.69;100.00
9059;BME280;4564;42.034;25.834;2024-02-23T03:13:53;100113.19;;;6.72;100.00
9059;BME280;4564;42.034;25.834;2024-02-23T03:16:21;100110.47;;;6.64;100.00
9059;BME280;4564;42.034;25.834;2024-02-23T03:18:48;100106.09;;;6.63;100.00
9059;BME280;4564;42.034;25.834;2024-02-23T03:21:15;100095.66;;;6.52;100.00
9059;BME280;4564;42.034;25.834;2024-02-23T03:23:42;100091.75;;;6.47;100.00
9059;BME280;4564;42.034;25.834;2024-02-23T03:26:10;100102.53;;;6.47;100.00
9059;BME280;4564;42.034;25.834;2024-02-23T03:28:37;100100.84;;;6.46;100.00
9059;BME280;4564;42.034;25.834;2024-02-23T03:31:03;100103.69;;;6.36;100.00
9059;BME280;4564;42.034;25.834;2024-02-23T03:33:31;100105.19;;;6.30;100.00
9059;BME280;4564;42.034;25.834;2024-02-23T03:35:58;100108.06;;;6.29;100.00
9059;BME280;4564;42.034;25.834;2024-02-23T03:38:24;100103.81;;;6.26;100.00
9059;BME280;4564;42.034;25.834;2024-02-23T03:40:51;100111.91;;;6.26;100.00
9059;BME280;4564;42.034;25.834;2024-02-23T03:43:19;100110.25;;;6.25;100.00
9059;BME280;4564;42.034;25.834;2024-02-23T03:45:46;100113.09;;;6.24;100.00
9059;BME280;4564;42.034;25.834;2024-02-23T03:48:13;100110.88;;;6.19;100.00
9059;BME280;4564;42.034;25.834;2024-02-23T03:50:41;100117.28;;;6.26;100.00
9059;BME280;4564;42.034;25.834;2024-02-23T03:53:07;100104.84;;;6.33;100.00
9059;BME280;4564;42.034;25.834;2024-02-23T03:55:34;100113.28;;;6.30;100.00
9059;BME280;4564;42.034;25.834;2024-02-23T03:58:00;100107.88;;;6.30;100.00
9059;BME280;4564;42.034;25.834;2024-02-23T04:00:27;100113.28;;;6.30;100.00
9059;BME280;4564;42.034;25.834;2024-02-23T04:02:54;100113.81;;;6.42;100.00
9059;BME280;4564;42.034;25.834;2024-02-23T04:05:21;100105.53;;;6.36;100.00
9059;BME280;4564;42.034;25.834;2024-02-23T04:07:49;100106.19;;;6.29;100.00
9059;BME280;4564;42.034;25.834;2024-02-23T04:10:15;100110.91;;;6.27;100.00
9059;BME280;4564;42.034;25.834;2024-02-23T04:12:46;100112.25;;;6.23;100.00
9059;BME280;4564;42.034;25.834;2024-02-23T04:15:12;100109.53;;;6.15;100.00
9059;BME280;4564;42.034;25.834;2024-02-23T04:17:39;100113.22;;;6.14;100.00
9059;BME280;4564;42.034;25.834;2024-02-23T04:20:07;100108.16;;;6.11;100.00
9059;BME280;4564;42.034;25.834;2024-02-23T04:22:34;100111.53;;;6.13;100.00
9059;BME280;4564;42.034;25.834;2024-02-23T04:25:03;100109.53;;;6.15;100.00
9059;BME280;4564;42.034;25.834;2024-02-23T04:27:30;100105.50;;;6.19;100.00
9059;BME280;4564;42.034;25.834;2024-02-23T04:29:57;100102.47;;;6.22;100.00
9059;BME280;4564;42.034;25.834;2024-02-23T04:32:23;100095.41;;;6.29;100.00
9059;BME280;4564;42.034;25.834;2024-02-23T04:34:50;100101.66;;;6.30;100.00
9059;BME280;4564;42.034;25.834;2024-02-23T04:37:17;100102.16;;;6.33;100.00
9059;BME280;4564;42.034;25.834;2024-02-23T04:39:43;100098.06;;;6.21;100.00
9059;BME280;4564;42.034;25.834;2024-02-23T04:42:11;100100.81;;;6.29;100.00
9059;BME280;4564;42.034;25.834;2024-02-23T04:44:38;100092.69;;;6.21;100.00
9059;BME280;4564;42.034;25.834;2024-02-23T04:47:05;100094.88;;;6.10;100.00
9059;BME280;4564;42.034;25.834;2024-02-23T04:49:31;100106.81;;;6.07;100.00
9059;BME280;4564;42.034;25.834;2024-02-23T04:51:58;100102.63;;;6.13;100.00
9059;BME280;4564;42.034;25.834;2024-02-23T04:54:24;100100.91;;;6.04;100.00
9059;BME280;4564;42.034;25.834;2024-02-23T04:56:51;100101.91;;;6.03;100.00
9059;BME280;4564;42.034;25.834;2024-02-23T04:59:19;100105.09;;;6.06;100.00
9059;BME280;4564;42.034;25.834;2024-02-23T05:01:46;100107.84;;;6.14;100.00
9059;BME280;4564;42.034;25.834;2024-02-23T05:04:13;100109.13;;;6.02;100.00
9059;BME280;4564;42.034;25.834;2024-02-23T05:06:39;100112.97;;;5.92;100.00
9059;BME280;4564;42.034;25.834;2024-02-23T05:09:07;100111.03;;;5.84;100.00
9059;BME280;4564;42.034;25.834;2024-02-23T05:11:34;100113.13;;;5.90;100.00
9059;BME280;4564;42.034;25.834;2024-02-23T05:14:01;100122.44;;;5.70;100.00
9059;BME280;4564;42.034;25.834;2024-02-23T05:16:29;100119.66;;;5.54;100.00
9059;BME280;4564;42.034;25.834;2024-02-23T05:18:55;100127.13;;;5.42;100.00
9059;BME280;4564;42.034;25.834;2024-02-23T05:21:22;100119.91;;;5.42;100.00
9059;BME280;4564;42.034;25.834;2024-02-23T05:23:51;100128.09;;;5.33;100.00
9059;BME280;4564;42.034;25.834;2024-02-23T05:26:17;100121.75;;;5.16;100.00
9059;BME280;4564;42.034;25.834;2024-02-23T05:28:44;100124.81;;;5.21;100.00
9059;BME280;4564;42.034;25.834;2024-02-23T05:31:11;100131.03;;;5.22;100.00
9059;BME280;4564;42.034;25.834;2024-02-23T05:33:38;100132.56;;;5.24;100.00
9059;BME280;4564;42.034;25.834;2024-02-23T05:36:06;100136.41;;;5.22;100.00
9059;BME280;4564;42.034;25.834;2024-02-23T05:38:33;100139.88;;;5.14;100.00
9059;BME280;4564;42.034;25.834;2024-02-23T05:40:59;100143.66;;;5.21;100.00
9059;BME280;4564;42.034;25.834;2024-02-23T05:43:26;100138.22;;;5.39;100.00
9059;BME280;4564;42.034;25.834;2024-02-23T05:45:53;100152.53;;;5.65;100.00
9059;BME280;4564;42.034;25.834;2024-02-23T05:48:22;100148.28;;;5.88;100.00
9059;BME280;4564;42.034;25.834;2024-02-23T05:50:50;100146.28;;;6.24;100.00
9059;BME280;4564;42.034;25.834;2024-02-23T05:53:17;100151.00;;;6.39;100.00
9059;BME280;4564;42.034;25.834;2024-02-23T05:55:44;100150.56;;;6.59;100.00
9059;BME280;4564;42.034;25.834;2024-02-23T05:58:11;100146.69;;;6.70;100.00
9059;BME280;4564;42.034;25.834;2024-02-23T06:00:40;100153.47;;;6.74;100.00
9059;BME280;4564;42.034;25.834;2024-02-23T06:03:07;100163.94;;;7.09;100.00
9059;BME280;4564;42.034;25.834;2024-02-23T06:05:34;100166.47;;;7.19;100.00
9059;BME280;4564;42.034;25.834;2024-02-23T06:08:02;100160.56;;;7.07;100.00
9059;BME280;4564;42.034;25.834;2024-02-23T06:10:29;100164.63;;;7.03;100.00
9059;BME280;4564;42.034;25.834;2024-02-23T06:12:55;100154.16;;;7.08;100.00
9059;BME280;4564;42.034;25.834;2024-02-23T06:15:22;100157.53;;;7.10;100.00
9059;BME280;4564;42.034;25.834;2024-02-23T06:17:49;100166.16;;;7.06;100.00
9059;BME280;4564;42.034;25.834;2024-02-23T06:20:16;100165.59;;;7.59;100.00
9059;BME280;4564;42.034;25.834;2024-02-23T06:22:42;100155.47;;;8.55;100.00
9059;BME280;4564;42.034;25.834;2024-02-23T06:25:11;100159.44;;;9.73;97.35
9059;BME280;4564;42.034;25.834;2024-02-23T06:27:38;100171.34;;;10.45;90.09
9059;BME280;4564;42.034;25.834;2024-02-23T06:30:05;100177.25;;;11.27;87.12
9059;BME280;4564;42.034;25.834;2024-02-23T06:32:32;100187.94;;;12.40;83.40
9059;BME280;4564;42.034;25.834;2024-02-23T06:34:58;100185.13;;;13.42;78.63
9059;BME280;4564;42.034;25.834;2024-02-23T06:37:25;100198.50;;;14.09;74.11
9059;BME280;4564;42.034;25.834;2024-02-23T06:39:51;100189.25;;;14.23;71.79
9059;BME280;4564;42.034;25.834;2024-02-23T06:42:21;100197.13;;;14.71;70.85
9059;BME280;4564;42.034;25.834;2024-02-23T06:44:48;100200.91;;;14.63;70.33
9059;BME280;4564;42.034;25.834;2024-02-23T06:47:14;100200.56;;;15.29;67.93
9059;BME280;4564;42.034;25.834;2024-02-23T06:49:41;100197.47;;;15.57;68.90
9059;BME280;4564;42.034;25.834;2024-02-23T06:52:08;100194.03;;;16.11;65.84
9059;BME280;4564;42.034;25.834;2024-02-23T06:54:35;100202.44;;;16.53;64.33
9059;BME280;4564;42.034;25.834;2024-02-23T06:57:02;100207.31;;;16.32;64.08
9059;BME280;4564;42.034;25.834;2024-02-23T06:59:30;100200.41;;;16.05;65.21
9059;BME280;4564;42.034;25.834;2024-02-23T07:01:57;100204.53;;;16.14;65.11
9059;BME280;4564;42.034;25.834;2024-02-23T07:04:24;100201.97;;;16.19;64.23
9059;BME280;4564;42.034;25.834;2024-02-23T07:06:50;100214.16;;;16.42;64.40
9059;BME280;4564;42.034;25.834;2024-02-23T07:09:17;100200.50;;;16.78;63.09
9059;BME280;4564;42.034;25.834;2024-02-23T07:11:44;100190.41;;;16.90;62.69
9059;BME280;4564;42.034;25.834;2024-02-23T07:14:10;100196.97;;;17.19;61.20
9059;BME280;4564;42.034;25.834;2024-02-23T07:16:40;100193.44;;;17.60;59.87
9059;BME280;4564;42.034;25.834;2024-02-23T07:19:07;100188.28;;;17.22;59.95
9059;BME280;4564;42.034;25.834;2024-02-23T07:21:34;100192.03;;;17.39;59.81
9059;BME280;4564;42.034;25.834;2024-02-23T07:24:01;100183.91;;;17.74;58.08
9059;BME280;4564;42.034;25.834;2024-02-23T07:26:28;100181.16;;;17.63;59.21
9059;BME280;4564;42.034;25.834;2024-02-23T07:28:55;100174.44;;;17.58;58.59
9059;BME280;4564;42.034;25.834;2024-02-23T07:31:22;100173.00;;;17.56;60.00
9059;BME280;4564;42.034;25.834;2024-02-23T07:33:50;100169.16;;;17.45;59.93
9059;BME280;4564;42.034;25.834;2024-02-23T07:36:16;100167.91;;;17.71;59.74
9059;BME280;4564;42.034;25.834;2024-02-23T07:38:43;100161.47;;;17.77;60.08
9059;BME280;4564;42.034;25.834;2024-02-23T07:41:10;100160.50;;;17.60;61.29
9059;BME280;4564;42.034;25.834;2024-02-23T07:43:38;100165.97;;;17.60;61.40
9059;BME280;4564;42.034;25.834;2024-02-23T07:46:05;100165.06;;;17.89;59.94
9059;BME280;4564;42.034;25.834;2024-02-23T07:48:34;100177.47;;;18.03;60.16
9059;BME280;4564;42.034;25.834;2024-02-23T07:51:02;100160.66;;;18.12;61.21
9059;BME280;4564;42.034;25.834;2024-02-23T07:53:29;100167.22;;;18.11;60.86
9059;BME280;4564;42.034;25.834;2024-02-23T07:55:55;100170.06;;;18.62;58.77
9059;BME280;4564;42.034;25.834;2024-02-23T07:58:24;100163.38;;;18.35;59.16
9059;BME280;4564;42.034;25.834;2024-02-23T08:00:51;100178.91;;;18.93;56.64
9059;BME280;4564;42.034;25.834;2024-02-23T08:03:18;100169.66;;;18.70;59.85
9059;BME280;4564;42.034;25.834;2024-02-23T08:05:44;100170.72;;;19.09;56.72
9059;BME280;4564;42.034;25.834;2024-02-23T08:08:12;100175.50;;;18.74;57.24
9059;BME280;4564;42.034;25.834;2024-02-23T08:10:39;100171.25;;;18.31;58.63
9059;BME280;4564;42.034;25.834;2024-02-23T08:13:06;100174.28;;;17.42;60.77
9059;BME280;4564;42.034;25.834;2024-02-23T08:15:33;100170.56;;;16.76;63.03
9059;BME280;4564;42.034;25.834;2024-02-23T08:18:01;100171.69;;;16.32;66.47
9059;BME280;4564;42.034;25.834;2024-02-23T08:20:28;100173.94;;;15.99;65.37
9059;BME280;4564;42.034;25.834;2024-02-23T08:22:54;100189.38;;;15.69;66.27
9059;BME280;4564;42.034;25.834;2024-02-23T08:25:22;100177.41;;;15.38;67.64
9059;BME280;4564;42.034;25.834;2024-02-23T08:27:49;100184.44;;;15.21;68.95
9059;BME280;4564;42.034;25.834;2024-02-23T08:30:15;100187.78;;;15.23;70.59
9059;BME280;4564;42.034;25.834;2024-02-23T08:32:42;100176.47;;;15.44;71.12
9059;BME280;4564;42.034;25.834;2024-02-23T08:35:09;100174.59;;;15.45;70.64
9059;BME280;4564;42.034;25.834;2024-02-23T08:37:35;100174.38;;;15.46;69.01
9059;BME280;4564;42.034;25.834;2024-02-23T08:40:02;100171.69;;;15.40;70.86
9059;BME280;4564;42.034;25.834;2024-02-23T08:42:30;100171.50;;;15.35;70.14
9059;BME280;4564;42.034;25.834;2024-02-23T08:44:57;100176.53;;;15.06;70.82
9059;BME280;4564;42.034;25.834;2024-02-23T08:47:24;100176.94;;;15.10;72.31
9059;BME280;4564;42.034;25.834;2024-02-23T08:49:53;100169.97;;;15.45;73.40
9059;BME280;4564;42.034;25.834;2024-02-23T08:52:20;100173.34;;;15.16;73.14
9059;BME280;4564;42.034;25.834;2024-02-23T08:54:47;100167.25;;;15.14;72.03
9059;BME280;4564;42.034;25.834;2024-02-23T08:57:13;100161.31;;;15.17;73.08
9059;BME280;4564;42.034;25.834;2024-02-23T08:59:44;100153.88;;;15.31;73.93
9059;BME280;4564;42.034;25.834;2024-02-23T09:02:10;100157.13;;;15.46;71.53
9059;BME280;4564;42.034;25.834;2024-02-23T09:04:37;100163.38;;;15.60;70.37
9059;BME280;4564;42.034;25.834;2024-02-23T09:07:03;100160.34;;;15.68;69.94
9059;BME280;4564;42.034;25.834;2024-02-23T09:09:30;100150.75;;;15.59;70.32
9059;BME280;4564;42.034;25.834;2024-02-23T09:11:57;100161.25;;;15.62;68.85
9059;BME280;4564;42.034;25.834;2024-02-23T09:14:23;100154.09;;;15.61;69.12
9059;BME280;4564;42.034;25.834;2024-02-23T09:16:52;100152.88;;;15.57;68.86
9059;BME280;4564;42.034;25.834;2024-02-23T09:19:18;100149.09;;;15.51;69.00
9059;BME280;4564;42.034;25.834;2024-02-23T09:21:46;100149.28;;;15.25;69.29
9059;BME280;4564;42.034;25.834;2024-02-23T09:24:12;100150.94;;;15.32;68.65
9059;BME280;4564;42.034;25.834;2024-02-23T09:26:39;100150.47;;;15.35;69.17
9059;BME280;4564;42.034;25.834;2024-02-23T09:29:06;100151.28;;;15.42;68.79
9059;BME280;4564;42.034;25.834;2024-02-23T09:31:33;100148.84;;;15.28;69.25
9059;BME280;4564;42.034;25.834;2024-02-23T09:34:01;100152.50;;;15.46;68.80
9059;BME280;4564;42.034;25.834;2024-02-23T09:36:28;100143.97;;;15.36;68.84
9059;BME280;4564;42.034;25.834;2024-02-23T09:38:55;100133.66;;;15.38;69.26
9059;BME280;4564;42.034;25.834;2024-02-23T09:41:22;100136.31;;;15.45;70.89
9059;BME280;4564;42.034;25.834;2024-02-23T09:43:49;100123.56;;;15.82;70.83
9059;BME280;4564;42.034;25.834;2024-02-23T09:46:18;100126.09;;;15.83;67.86
9059;BME280;4564;42.034;25.834;2024-02-23T09:48:45;100122.53;;;15.83;67.55
9059;BME280;4564;42.034;25.834;2024-02-23T09:51:14;100119.03;;;15.76;68.82
9059;BME280;4564;42.034;25.834;2024-02-23T09:53:41;100115.38;;;15.82;68.11
9059;BME280;4564;42.034;25.834;2024-02-23T09:56:08;100119.19;;;15.99;68.98
9059;BME280;4564;42.034;25.834;2024-02-23T09:58:35;100119.50;;;16.09;68.62
9059;BME280;4564;42.034;25.834;2024-02-23T10:01:02;100111.00;;;16.35;67.69
9059;BME280;4564;42.034;25.834;2024-02-23T10:03:29;100116.44;;;16.54;68.07
9059;BME280;4564;42.034;25.834;2024-02-23T10:05:56;100101.38;;;16.63;66.02
9059;BME280;4564;42.034;25.834;2024-02-23T10:08:24;100102.06;;;16.58;66.60
9059;BME280;4564;42.034;25.834;2024-02-23T10:10:51;100092.41;;;16.56;66.43
9059;BME280;4564;42.034;25.834;2024-02-23T10:13:18;100097.00;;;16.62;67.50
9059;BME280;4564;42.034;25.834;2024-02-23T10:15:45;100089.41;;;16.75;66.51
9059;BME280;4564;42.034;25.834;2024-02-23T10:18:12;100076.06;;;16.79;66.48
9059;BME280;4564;42.034;25.834;2024-02-23T10:20:40;100071.03;;;16.94;65.73
9059;BME280;4564;42.034;25.834;2024-02-23T10:23:07;100073.53;;;17.07;65.54
9059;BME280;4564;42.034;25.834;2024-02-23T10:25:37;100071.59;;;16.96;66.62
9059;BME280;4564;42.034;25.834;2024-02-23T10:28:05;100070.22;;;17.17;65.71
9059;BME280;4564;42.034;25.834;2024-02-23T10:30:32;100058.19;;;17.18;66.47
9059;BME280;4564;42.034;25.834;2024-02-23T10:32:59;100057.25;;;17.24;64.82
9059;BME280;4564;42.034;25.834;2024-02-23T10:35:25;100047.84;;;17.32;65.30
9059;BME280;4564;42.034;25.834;2024-02-23T10:37:52;100037.31;;;17.29;65.48
9059;BME280;4564;42.034;25.834;2024-02-23T10:40:20;100037.19;;;17.24;64.87
9059;BME280;4564;42.034;25.834;2024-02-23T10:42:49;100029.91;;;17.17;65.21
9059;BME280;4564;42.034;25.834;2024-02-23T10:45:17;100028.03;;;17.30;65.83
9059;BME280;4564;42.034;25.834;2024-02-23T10:47:44;100029.94;;;17.41;65.12
9059;BME280;4564;42.034;25.834;2024-02-23T10:50:10;100020.88;;;17.52;64.44
9059;BME280;4564;42.034;25.834;2024-02-23T10:52:39;100018.38;;;17.74;63.18
9059;BME280;4564;42.034;25.834;2024-02-23T10:55:07;100010.25;;;17.90;62.88
9059;BME280;4564;42.034;25.834;2024-02-23T10:57:34;100006.56;;;17.85;62.54
9059;BME280;4564;42.034;25.834;2024-02-23T11:00:03;100002.13;;;17.95;62.27
9059;BME280;4564;42.034;25.834;2024-02-23T11:02:34;100003.59;;;18.15;61.20
9059;BME280;4564;42.034;25.834;2024-02-23T11:05:03;99996.66;;;18.24;60.89
9059;BME280;4564;42.034;25.834;2024-02-23T11:07:30;99985.50;;;18.30;60.22
9059;BME280;4564;42.034;25.834;2024-02-23T11:09:58;99988.47;;;18.40;60.07
9059;BME280;4564;42.034;25.834;2024-02-23T11:12:25;99978.22;;;18.53;58.87
9059;BME280;4564;42.034;25.834;2024-02-23T11:14:56;99980.47;;;18.67;57.83
9059;BME280;4564;42.034;25.834;2024-02-23T11:17:25;99970.13;;;18.74;58.41
9059;BME280;4564;42.034;25.834;2024-02-23T11:19:53;99974.06;;;18.62;57.76
9059;BME280;4564;42.034;25.834;2024-02-23T11:22:23;99962.47;;;18.76;57.34
9059;BME280;4564;42.034;25.834;2024-02-23T11:24:50;99962.81;;;18.80;56.68
9059;BME280;4564;42.034;25.834;2024-02-23T11:27:17;99956.16;;;18.76;57.18
9059;BME280;4564;42.034;25.834;2024-02-23T11:29:45;99948.13;;;18.74;57.39
9059;BME280;4564;42.034;25.834;2024-02-23T11:32:15;99950.41;;;18.77;56.90
9059;BME280;4564;42.034;25.834;2024-02-23T11:34:52;99946.31;;;18.97;55.48
9059;BME280;4564;42.034;25.834;2024-02-23T11:37:20;99941.13;;;19.17;54.36
9059;BME280;4564;42.034;25.834;2024-02-23T11:39:46;99945.28;;;19.36;53.64
9059;BME280;4564;42.034;25.834;2024-02-23T11:42:13;99944.59;;;19.29;53.24
9059;BME280;4564;42.034;25.834;2024-02-23T11:44:40;99932.59;;;19.35;53.99
9059;BME280;4564;42.034;25.834;2024-02-23T11:47:07;99927.31;;;19.50;53.72
9059;BME280;4564;42.034;25.834;2024-02-23T11:49:33;99928.63;;;19.64;52.94
9059;BME280;4564;42.034;25.834;2024-02-23T11:52:01;99927.88;;;19.69;51.95
9059;BME280;4564;42.034;25.834;2024-02-23T11:54:29;99928.47;;;19.76;51.42
9059;BME280;4564;42.034;25.834;2024-02-23T11:56:58;99912.19;;;19.69;49.28
9059;BME280;4564;42.034;25.834;2024-02-23T11:59:25;99914.66;;;19.71;49.23
9059;BME280;4564;42.034;25.834;2024-02-23T12:01:52;99917.88;;;19.63;48.93
9059;BME280;4564;42.034;25.834;2024-02-23T12:04:18;99918.88;;;19.57;49.80
9059;BME280;4564;42.034;25.834;2024-02-23T12:06:45;99910.03;;;19.55;48.48
9059;BME280;4564;42.034;25.834;2024-02-23T12:09:13;99914.66;;;19.49;50.30
9059;BME280;4564;42.034;25.834;2024-02-23T12:11:40;99914.41;;;19.51;50.19
9059;BME280;4564;42.034;25.834;2024-02-23T12:14:07;99908.72;;;19.57;50.17
9059;BME280;4564;42.034;25.834;2024-02-23T12:16:34;99910.44;;;19.63;49.55
9059;BME280;4564;42.034;25.834;2024-02-23T12:19:01;99910.88;;;19.55;49.06
9059;BME280;4564;42.034;25.834;2024-02-23T12:21:28;99898.03;;;19.44;48.68
9059;BME280;4564;42.034;25.834;2024-02-23T12:23:55;99906.22;;;19.39;49.88
9059;BME280;4564;42.034;25.834;2024-02-23T12:26:23;99906.38;;;19.49;49.93
9059;BME280;4564;42.034;25.834;2024-02-23T12:28:50;99902.56;;;19.50;48.91
9059;BME280;4564;42.034;25.834;2024-02-23T12:31:17;99897.38;;;19.54;48.71
9059;BME280;4564;42.034;25.834;2024-02-23T12:33:49;99905.38;;;19.55;49.04
9059;BME280;4564;42.034;25.834;2024-02-23T12:36:16;99899.88;;;19.55;48.04
9059;BME280;4564;42.034;25.834;2024-02-23T12:38:43;99896.75;;;19.68;47.77
9059;BME280;4564;42.034;25.834;2024-02-23T12:41:10;99895.78;;;19.80;47.86
9059;BME280;4564;42.034;25.834;2024-02-23T12:43:38;99897.56;;;19.91;47.00
9059;BME280;4564;42.034;25.834;2024-02-23T12:46:05;99896.97;;;19.89;47.63
9059;BME280;4564;42.034;25.834;2024-02-23T12:48:33;99879.31;;;19.85;48.09
9059;BME280;4564;42.034;25.834;2024-02-23T12:51:00;99889.75;;;19.83;48.57
9059;BME280;4564;42.034;25.834;2024-02-23T12:53:32;99891.88;;;19.76;48.88
9059;BME280;4564;42.034;25.834;2024-02-23T12:56:00;99894.06;;;19.74;49.16
9059;BME280;4564;42.034;25.834;2024-02-23T12:58:26;99897.44;;;19.81;47.36
9059;BME280;4564;42.034;25.834;2024-02-23T13:00:55;99896.09;;;19.83;46.71